DAL2267 KLAX-KSFO
Flight info
| Callsign | DAL2267 |
|---|---|
| Flight time | N/A |
| Altitude | 36000 |
| Route | SUMMR2 STOKD SERFR SERFR4 |
| Aircraft | B738/M-SDE2E3FGHIRWXY/LB1 |
Departure
| Time | 2026-05-05 21:00 |
|---|---|
| Airport | Los Angeles International Airport (KLAX) |
Arrival
| Time | N/A |
|---|---|
| Airport | San Francisco International Airport (KSFO) |
| Time | Latitude | Longitude | Altitude | Speed | Heading |
|---|---|---|---|---|---|
| 2026-05-05 20:44 | 33.94665 | -118.40494 | 122 ft | 0 kts | 99° |
| 2026-05-05 20:52 | 33.94667 | -118.40504 | 122 ft | 2 kts | 86° |
| 2026-05-05 20:52 | 33.94662 | -118.40521 | 122 ft | 2 kts | 60° |
| 2026-05-05 20:53 | 33.94653 | -118.40535 | 122 ft | 2 kts | 37° |
| 2026-05-05 20:53 | 33.94640 | -118.40543 | 122 ft | 2 kts | 13° |
| 2026-05-05 20:53 | 33.94626 | -118.40544 | 122 ft | 1 kts | 351° |
| 2026-05-05 20:53 | 33.94623 | -118.40543 | 122 ft | 0 kts | 349° |
| 2026-05-05 20:55 | 33.94626 | -118.40545 | 122 ft | 0 kts | 343° |
| 2026-05-05 20:56 | 33.94647 | -118.40560 | 122 ft | 5 kts | 329° |
| 2026-05-05 20:56 | 33.94711 | -118.40579 | 122 ft | 5 kts | 352° |
| 2026-05-05 20:56 | 33.94712 | -118.40579 | 122 ft | 0 kts | 352° |
| 2026-05-05 20:56 | 33.94715 | -118.40579 | 122 ft | 2 kts | 352° |
| 2026-05-05 20:57 | 33.94750 | -118.40585 | 122 ft | 8 kts | 353° |
| 2026-05-05 20:57 | 33.94808 | -118.40598 | 122 ft | 9 kts | 346° |
| 2026-05-05 20:57 | 33.94861 | -118.40591 | 122 ft | 7 kts | 54° |
| 2026-05-05 20:57 | 33.94875 | -118.40514 | 122 ft | 14 kts | 83° |
| 2026-05-05 20:58 | 33.94891 | -118.40354 | 120 ft | 22 kts | 83° |
| 2026-05-05 20:58 | 33.94909 | -118.40171 | 119 ft | 21 kts | 83° |
| 2026-05-05 20:58 | 33.94927 | -118.39994 | 118 ft | 18 kts | 83° |
| 2026-05-05 20:58 | 33.95015 | -118.39925 | 117 ft | 16 kts | 339° |
| 2026-05-05 20:59 | 33.95032 | -118.40053 | 118 ft | 21 kts | 262° |
| 2026-05-05 20:59 | 33.94987 | -118.40507 | 122 ft | 93 kts | 263° |
| 2026-05-05 20:59 | 33.94873 | -118.41593 | 123 ft | 164 kts | 262° |
| 2026-05-05 20:59 | 33.94727 | -118.43074 | 624 ft | 189 kts | 263° |
| 2026-05-05 21:00 | 33.94571 | -118.44653 | 1508 ft | 194 kts | 263° |
| 2026-05-05 21:00 | 33.94415 | -118.46320 | 2076 ft | 207 kts | 264° |
| 2026-05-05 21:00 | 33.94321 | -118.48099 | 2543 ft | 224 kts | 268° |
| 2026-05-05 21:00 | 33.94275 | -118.50048 | 3100 ft | 237 kts | 268° |
| 2026-05-05 21:01 | 33.94186 | -118.52039 | 3831 ft | 241 kts | 266° |
| 2026-05-05 21:01 | 33.94030 | -118.54034 | 4570 ft | 244 kts | 265° |
| 2026-05-05 21:01 | 33.93856 | -118.56068 | 5267 ft | 249 kts | 265° |
| 2026-05-05 21:01 | 33.93683 | -118.58171 | 5973 ft | 253 kts | 266° |
| 2026-05-05 21:02 | 33.93516 | -118.60278 | 6675 ft | 257 kts | 266° |
| 2026-05-05 21:02 | 33.93346 | -118.62425 | 7434 ft | 258 kts | 266° |
| 2026-05-05 21:02 | 33.93175 | -118.64568 | 8168 ft | 259 kts | 267° |
| 2026-05-05 21:02 | 33.93006 | -118.66714 | 8886 ft | 260 kts | 266° |
| 2026-05-05 21:03 | 33.92835 | -118.68835 | 9585 ft | 261 kts | 266° |
| 2026-05-05 21:03 | 33.92657 | -118.71055 | 10273 ft | 264 kts | 266° |
| 2026-05-05 21:03 | 33.92482 | -118.73287 | 10974 ft | 266 kts | 267° |
| 2026-05-05 21:03 | 33.92309 | -118.75483 | 11652 ft | 268 kts | 267° |
| 2026-05-05 21:04 | 33.92131 | -118.77766 | 11938 ft | 273 kts | 267° |
| 2026-05-05 21:04 | 33.91953 | -118.80057 | 11971 ft | 285 kts | 267° |
| 2026-05-05 21:04 | 33.91765 | -118.82533 | 11976 ft | 315 kts | 268° |
| 2026-05-05 21:04 | 33.91686 | -118.85274 | 12138 ft | 336 kts | 272° |
| 2026-05-05 21:05 | 33.91753 | -118.88149 | 12505 ft | 351 kts | 274° |
| 2026-05-05 21:05 | 33.91880 | -118.91157 | 12915 ft | 364 kts | 275° |
| 2026-05-05 21:05 | 33.92011 | -118.94231 | 13587 ft | 369 kts | 275° |
| 2026-05-05 21:05 | 33.92129 | -118.97305 | 14356 ft | 372 kts | 275° |
| 2026-05-05 21:06 | 33.92471 | -119.00404 | 15125 ft | 373 kts | 284° |
| 2026-05-05 21:06 | 33.93299 | -119.03357 | 15808 ft | 376 kts | 295° |
| 2026-05-05 21:06 | 33.94508 | -119.06151 | 16546 ft | 378 kts | 300° |
| 2026-05-05 21:06 | 33.95798 | -119.08752 | 17200 ft | 382 kts | 302° |
| 2026-05-05 21:07 | 33.97208 | -119.11453 | 17898 ft | 385 kts | 303° |
| 2026-05-05 21:07 | 33.98655 | -119.14172 | 18582 ft | 388 kts | 304° |
| 2026-05-05 21:07 | 34.00268 | -119.16794 | 19261 ft | 391 kts | 311° |
| 2026-05-05 21:07 | 34.02106 | -119.19192 | 19952 ft | 392 kts | 317° |
| 2026-05-05 21:08 | 34.04143 | -119.21379 | 20606 ft | 394 kts | 322° |
| 2026-05-05 21:08 | 34.06352 | -119.23421 | 21317 ft | 395 kts | 325° |
| 2026-05-05 21:08 | 34.08587 | -119.25344 | 21989 ft | 396 kts | 326° |
| 2026-05-05 21:08 | 34.10854 | -119.27247 | 22640 ft | 398 kts | 327° |
| 2026-05-05 21:09 | 34.13144 | -119.29163 | 23231 ft | 401 kts | 327° |
| 2026-05-05 21:09 | 34.15420 | -119.31078 | 23811 ft | 404 kts | 327° |
| 2026-05-05 21:09 | 34.17738 | -119.33042 | 24336 ft | 407 kts | 327° |
| 2026-05-05 21:09 | 34.20047 | -119.35010 | 24800 ft | 411 kts | 327° |
| 2026-05-05 21:10 | 34.22385 | -119.37013 | 25263 ft | 415 kts | 327° |
| 2026-05-05 21:10 | 34.24752 | -119.39048 | 25751 ft | 418 kts | 328° |
| 2026-05-05 21:10 | 34.27158 | -119.41122 | 26196 ft | 421 kts | 327° |
| 2026-05-05 21:10 | 34.29534 | -119.43172 | 26647 ft | 424 kts | 328° |
| 2026-05-05 21:11 | 34.31985 | -119.45290 | 27032 ft | 429 kts | 328° |
| 2026-05-05 21:11 | 34.34418 | -119.47396 | 27517 ft | 430 kts | 328° |
| 2026-05-05 21:11 | 34.36848 | -119.49502 | 27927 ft | 433 kts | 328° |
| 2026-05-05 21:11 | 34.39284 | -119.51650 | 28279 ft | 438 kts | 327° |
| 2026-05-05 21:12 | 34.41655 | -119.54010 | 28668 ft | 443 kts | 323° |
| 2026-05-05 21:12 | 34.43928 | -119.56558 | 29121 ft | 446 kts | 321° |
| 2026-05-05 21:12 | 34.46132 | -119.59193 | 29605 ft | 447 kts | 320° |
| 2026-05-05 21:12 | 34.48302 | -119.61865 | 30232 ft | 443 kts | 320° |
| 2026-05-05 21:13 | 34.50449 | -119.64540 | 30788 ft | 439 kts | 320° |
| 2026-05-05 21:13 | 34.52565 | -119.67181 | 31081 ft | 443 kts | 319° |
| 2026-05-05 21:13 | 34.54742 | -119.69888 | 31296 ft | 447 kts | 319° |
| 2026-05-05 21:13 | 34.56929 | -119.72607 | 31621 ft | 449 kts | 319° |
| 2026-05-05 21:14 | 34.59098 | -119.75301 | 32098 ft | 447 kts | 319° |
| 2026-05-05 21:14 | 34.61281 | -119.78013 | 32596 ft | 443 kts | 319° |
| 2026-05-05 21:14 | 34.63446 | -119.80701 | 33154 ft | 438 kts | 319° |
| 2026-05-05 21:14 | 34.65590 | -119.83360 | 33516 ft | 439 kts | 319° |
| 2026-05-05 21:15 | 34.67755 | -119.86043 | 33653 ft | 444 kts | 318° |
| 2026-05-05 21:15 | 34.69970 | -119.88784 | 33858 ft | 448 kts | 318° |
| 2026-05-05 21:15 | 34.72183 | -119.91527 | 34225 ft | 448 kts | 319° |
| 2026-05-05 21:15 | 34.74409 | -119.94295 | 34615 ft | 447 kts | 318° |
| 2026-05-05 21:16 | 34.76568 | -119.96981 | 35055 ft | 443 kts | 318° |
| 2026-05-05 21:16 | 34.78737 | -119.99682 | 35502 ft | 440 kts | 318° |
| 2026-05-05 21:16 | 34.80864 | -120.02332 | 35900 ft | 437 kts | 318° |
| 2026-05-05 21:16 | 34.83016 | -120.05013 | 35915 ft | 437 kts | 318° |
| 2026-05-05 21:17 | 34.87305 | -120.10355 | 36022 ft | 442 kts | 318° |
| 2026-05-05 21:17 | 34.91594 | -120.15710 | 36026 ft | 440 kts | 318° |
| 2026-05-05 21:18 | 34.95876 | -120.21085 | 36031 ft | 443 kts | 318° |
| 2026-05-05 21:18 | 35.00174 | -120.26437 | 36026 ft | 441 kts | 318° |
| 2026-05-05 21:19 | 35.04480 | -120.31845 | 36038 ft | 442 kts | 318° |
| 2026-05-05 21:19 | 35.08775 | -120.37247 | 36033 ft | 443 kts | 319° |
| 2026-05-05 21:20 | 35.13192 | -120.42449 | 36046 ft | 441 kts | 322° |
| 2026-05-05 21:20 | 35.17749 | -120.47480 | 36029 ft | 440 kts | 323° |
| 2026-05-05 21:21 | 35.22278 | -120.52467 | 36041 ft | 439 kts | 323° |
| 2026-05-05 21:21 | 35.26800 | -120.57492 | 36060 ft | 442 kts | 323° |
| 2026-05-05 21:22 | 35.31329 | -120.62564 | 36040 ft | 441 kts | 323° |
| 2026-05-05 21:22 | 35.35863 | -120.67664 | 36041 ft | 442 kts | 322° |
| 2026-05-05 21:23 | 35.40381 | -120.72763 | 36041 ft | 442 kts | 322° |
| 2026-05-05 21:23 | 35.44920 | -120.77892 | 36046 ft | 444 kts | 323° |
| 2026-05-05 21:24 | 35.49518 | -120.82979 | 36026 ft | 439 kts | 326° |
| 2026-05-05 21:24 | 35.54374 | -120.87612 | 36027 ft | 438 kts | 329° |
| 2026-05-05 21:25 | 35.60440 | -120.93117 | 36020 ft | 440 kts | 329° |